Time;durP1;ratioP1;P1;durP2;ratioP2;P2;SDS_P1;SDS_P2;PMS_P1;PMS_P2;Temp;Humidity;BMP_temperature;BMP_pressure;BME280_temperature;BME280_humidity;BME280_pressure;Samples;Min_cycle;Max_cycle;Signal;HPM_P1;HPM_P2
2023/02/25 00:00:53;;;;;;;10.53;8.00;;;4.70;99.90;;;5.47;100.00;96730.97;5187118;28;20194;-80
2023/02/25 00:03:28;;;;;;;11.43;9.27;;;4.70;99.90;;;5.35;100.00;96729.47;5178336;28;20231;-80
2023/02/25 00:06:02;;;;;;;13.20;9.63;;;4.70;99.90;;;5.38;100.00;96736.38;5181944;28;20396;-79
2023/02/25 00:08:36;;;;;;;13.83;11.03;;;4.80;99.90;;;5.34;100.00;96737.84;5186589;28;20247;-81
2023/02/25 00:11:09;;;;;;;13.27;10.97;;;4.60;99.90;;;5.32;100.00;96731.84;5183792;28;20214;-80
2023/02/25 00:13:43;;;;;;;16.80;11.40;;;4.70;99.90;;;5.26;100.00;96739.03;5178862;28;20229;-80
2023/02/25 00:16:17;;;;;;;14.73;11.30;;;4.70;99.90;;;5.26;100.00;96735.63;5185858;28;20204;-80
2023/02/25 00:18:55;;;;;;;13.40;11.93;;;4.60;99.90;;;5.30;100.00;96743.53;5186478;28;20199;-80
2023/02/25 00:21:29;;;;;;;14.23;12.00;;;4.70;99.90;;;5.33;100.00;96733.56;5179441;28;20298;-80
2023/02/25 00:24:02;;;;;;;14.33;12.23;;;4.70;99.90;;;5.22;100.00;96734.59;5184910;28;20576;-80
2023/02/25 00:26:49;;;;;;;12.17;10.90;;;4.60;99.90;;;5.19;100.00;96744.53;5182583;28;20205;-80
2023/02/25 00:29:22;;;;;;;13.47;11.53;;;4.60;99.90;;;5.18;100.00;96746.22;5191675;28;20721;-81
2023/02/25 00:31:55;;;;;;;16.10;12.87;;;4.60;99.90;;;5.21;100.00;96748.06;5190344;28;20268;-79
2023/02/25 00:34:30;;;;;;;18.30;13.50;;;4.60;99.90;;;5.33;100.00;96736.09;5186857;28;20250;-80
2023/02/25 00:37:03;;;;;;;15.27;12.43;;;4.60;99.90;;;5.38;100.00;96736.38;5190941;28;20584;-81
2023/02/25 00:39:41;;;;;;;16.30;13.80;;;4.70;99.90;;;5.19;100.00;96734.41;5185827;28;20655;-80
2023/02/25 00:42:17;;;;;;;17.33;13.53;;;4.60;99.90;;;5.09;100.00;96732.09;5189615;28;20202;-81
2023/02/25 00:44:51;;;;;;;15.37;12.73;;;4.50;99.90;;;5.01;100.00;96730.78;5180354;28;20214;-80
2023/02/25 00:47:24;;;;;;;19.10;14.47;;;4.40;99.90;;;4.95;100.00;96734.72;5184084;28;20575;-80
2023/02/25 00:49:58;;;;;;;15.53;13.57;;;4.40;99.90;;;4.93;100.00;96735.41;5189262;28;20313;-80
2023/02/25 00:52:33;;;;;;;16.30;12.33;;;4.30;99.90;;;4.91;100.00;96747.06;5183782;28;20202;-80
2023/02/25 00:55:07;;;;;;;18.43;14.43;;;4.40;99.90;;;4.93;100.00;96736.25;5184295;28;20222;-80
2023/02/25 00:57:42;;;;;;;17.23;14.40;;;4.40;99.90;;;4.97;100.00;96740.72;5188441;28;20197;-80
2023/02/25 01:00:16;;;;;;;16.97;14.40;;;4.40;99.90;;;5.01;100.00;96756.09;5179834;28;20206;-81
2023/02/25 01:02:49;;;;;;;17.23;14.33;;;4.40;99.90;;;5.09;100.00;96752.38;5186582;28;20252;-79
2023/02/25 01:05:24;;;;;;;17.77;13.87;;;4.40;99.90;;;5.04;100.00;96744.50;5184018;28;21154;-80
2023/02/25 01:07:57;;;;;;;18.63;14.23;;;4.50;99.90;;;4.95;100.00;96747.38;5189964;28;20207;-80
2023/02/25 01:10:30;;;;;;;20.40;13.97;;;4.40;99.90;;;4.96;100.00;96730.50;5186873;28;20592;-79
2023/02/25 01:13:03;;;;;;;18.73;15.07;;;4.40;99.90;;;5.02;100.00;96745.19;5182421;28;20221;-80
2023/02/25 01:15:36;;;;;;;21.07;15.43;;;4.50;99.90;;;5.06;100.00;96745.44;5181700;28;20289;-80
2023/02/25 01:18:10;;;;;;;19.57;13.77;;;4.50;99.90;;;5.12;100.00;96748.38;5187290;28;20631;-79
2023/02/25 01:20:44;;;;;;;16.20;13.83;;;4.50;99.90;;;5.13;100.00;96741.66;5189324;28;20195;-80
2023/02/25 01:23:17;;;;;;;18.27;14.67;;;4.50;99.90;;;5.10;100.00;96746.53;5182743;28;20649;-80
2023/02/25 01:25:50;;;;;;;17.23;13.53;;;4.60;99.90;;;5.12;100.00;96752.53;5182597;28;20221;-80
2023/02/25 01:28:23;;;;;;;17.57;13.93;;;4.60;99.90;;;5.11;100.00;96756.75;5174787;28;20195;-79
2023/02/25 01:30:56;;;;;;;21.20;14.53;;;4.60;99.90;;;5.13;100.00;96762.78;5188971;28;20219;-80
2023/02/25 01:33:29;;;;;;;17.43;13.33;;;4.60;99.90;;;5.16;100.00;96765.50;5182125;28;20229;-80
2023/02/25 01:36:05;;;;;;;17.70;13.80;;;4.60;99.90;;;5.15;100.00;96758.69;5181614;28;20210;-79
2023/02/25 01:38:38;;;;;;;16.10;12.60;;;4.60;99.90;;;5.13;100.00;96750.13;5178482;28;20544;-80
2023/02/25 01:41:12;;;;;;;16.07;13.20;;;4.60;99.90;;;5.17;100.00;96749.50;5181366;28;20292;-80
2023/02/25 01:44:04;;;;;;;14.07;12.57;;;4.50;99.90;;;5.11;100.00;96753.34;5180502;28;20291;-80
2023/02/25 01:46:39;;;;;;;17.00;12.97;;;4.50;99.90;;;5.04;100.00;96748.72;5184842;28;20209;-80
2023/02/25 01:49:18;;;;;;;15.07;12.40;;;4.50;99.90;;;5.11;100.00;96766.00;5182749;28;20752;-80
2023/02/25 01:51:57;;;;;;;17.27;13.27;;;4.50;99.90;;;5.08;100.00;96766.69;5184967;28;20277;-80
2023/02/25 01:54:31;;;;;;;14.07;11.90;;;4.50;99.90;;;5.16;100.00;96779.81;5179504;28;20221;-80
2023/02/25 01:57:10;;;;;;;13.23;11.40;;;4.50;99.90;;;5.03;100.00;96787.44;5185239;28;20202;-80
2023/02/25 01:59:44;;;;;;;14.20;11.70;;;4.50;99.90;;;5.15;100.00;96785.66;5185613;28;20651;-80
2023/02/25 02:02:21;;;;;;;12.73;11.43;;;4.50;99.90;;;5.29;100.00;96783.94;5181983;28;20656;-81
2023/02/25 02:04:55;;;;;;;12.17;10.63;;;4.60;99.90;;;5.05;100.00;96785.91;5181793;28;22221;-80
2023/02/25 02:07:29;;;;;;;12.33;10.63;;;4.50;99.90;;;4.93;100.00;96781.84;5185790;28;20664;-80
2023/02/25 02:10:03;;;;;;;12.33;10.60;;;4.40;99.90;;;4.90;100.00;96775.72;5185724;28;20588;-80
2023/02/25 02:12:40;;;;;;;14.37;11.03;;;4.40;99.90;;;4.96;100.00;96765.97;5188377;28;20585;-79
2023/02/25 02:15:15;;;;;;;12.30;11.00;;;4.40;99.90;;;4.98;100.00;96756.81;5184387;28;20226;-81
2023/02/25 02:17:56;;;;;;;11.33;10.07;;;4.40;99.90;;;4.96;100.00;96751.63;5176117;28;20186;-81
2023/02/25 02:20:33;;;;;;;11.93;10.50;;;4.40;99.90;;;4.93;100.00;96759.06;5177260;28;20195;-81
2023/02/25 02:23:46;;;;;;;13.53;10.30;;;4.40;99.90;;;4.91;100.00;96763.13;5188183;28;20205;-80
2023/02/25 02:26:50;;;;;;;12.20;9.83;;;4.40;99.90;;;4.93;100.00;96760.72;5186870;28;20198;-80
2023/02/25 02:30:06;;;;;;;11.60;9.97;;;4.40;99.90;;;4.85;100.00;96767.81;5181873;28;20580;-80
2023/02/25 02:32:48;;;;;;;12.17;10.33;;;4.30;99.90;;;4.88;100.00;96778.16;5178147;28;20212;-79
2023/02/25 02:35:29;;;;;;;12.47;10.30;;;4.30;99.90;;;4.87;100.00;96766.28;5179452;28;20253;-80
2023/02/25 02:38:12;;;;;;;11.37;9.97;;;4.30;99.90;;;4.84;100.00;96775.34;5185271;28;20202;-80
2023/02/25 02:40:56;;;;;;;12.23;10.17;;;4.30;99.90;;;4.88;100.00;96782.34;5181197;28;20202;-80
2023/02/25 02:43:41;;;;;;;10.77;9.63;;;4.30;99.90;;;4.97;100.00;96786.28;5176961;28;20588;-80
2023/02/25 02:46:20;;;;;;;11.93;10.00;;;4.30;99.90;;;4.92;100.00;96790.22;5180394;28;20691;-80
2023/02/25 02:49:05;;;;;;;10.03;9.00;;;4.30;99.90;;;4.86;100.00;96799.94;5179380;28;20245;-80
2023/02/25 02:51:43;;;;;;;9.10;8.00;;;4.30;99.90;;;4.79;100.00;96796.97;5187386;28;20219;-81
2023/02/25 02:54:19;;;;;;;11.20;8.70;;;4.20;99.90;;;4.79;100.00;96800.38;5189701;28;20225;-80
2023/02/25 02:56:56;;;;;;;9.50;8.47;;;4.20;99.90;;;4.87;100.00;96805.91;5189073;28;20575;-80
2023/02/25 02:59:35;;;;;;;9.77;8.73;;;4.20;99.90;;;4.86;100.00;96796.53;5196452;28;20194;-80
2023/02/25 03:02:13;;;;;;;10.10;7.97;;;4.20;99.90;;;4.84;100.00;96804.06;5185467;28;20214;-80
2023/02/25 03:04:53;;;;;;;10.00;8.30;;;4.20;99.90;;;4.80;100.00;96804.63;5184903;28;20244;-80
2023/02/25 03:07:28;;;;;;;10.33;8.70;;;4.20;99.90;;;4.77;100.00;96799.38;5186176;28;20207;-81
2023/02/25 03:10:07;;;;;;;10.13;8.17;;;4.20;99.90;;;4.69;100.00;96809.06;5189673;28;20211;-80
2023/02/25 03:12:40;;;;;;;9.30;7.73;;;4.20;99.90;;;4.74;100.00;96804.25;5188843;28;20700;-80
2023/02/25 03:15:14;;;;;;;9.37;8.40;;;4.10;99.90;;;4.85;100.00;96808.34;5186142;28;20221;-81
2023/02/25 03:17:53;;;;;;;9.53;8.20;;;4.20;99.90;;;4.75;100.00;96816.16;5187751;28;20285;-80
2023/02/25 03:20:34;;;;;;;8.20;7.50;;;4.20;99.90;;;4.72;100.00;96813.41;5185925;28;20194;-80
2023/02/25 03:23:14;;;;;;;8.57;7.50;;;4.10;99.90;;;4.74;100.00;96819.44;5187335;28;20202;-81
2023/02/25 03:25:52;;;;;;;8.70;7.67;;;4.10;99.90;;;4.67;100.00;96817.34;5194246;28;20194;-80
2023/02/25 03:28:29;;;;;;;10.47;7.60;;;4.10;99.90;;;4.70;100.00;96822.59;5185437;28;20197;-80
2023/02/25 03:31:07;;;;;;;10.17;7.93;;;4.10;99.90;;;4.72;100.00;96821.91;5188188;28;20211;-80
2023/02/25 03:33:46;;;;;;;11.93;8.00;;;4.10;99.90;;;4.65;100.00;96822.28;5184725;28;20268;-81
2023/02/25 03:36:26;;;;;;;8.73;7.53;;;4.00;99.90;;;4.65;100.00;96829.88;5188320;28;20217;-80
2023/02/25 03:39:07;;;;;;;8.73;7.13;;;4.00;99.90;;;4.60;100.00;96828.69;5186452;28;20212;-81
2023/02/25 03:41:46;;;;;;;8.37;7.50;;;4.00;99.90;;;4.65;100.00;96834.06;5186699;28;20191;-79
2023/02/25 03:44:25;;;;;;;9.53;7.73;;;4.00;99.90;;;4.61;100.00;96832.13;5184427;28;20226;-81
2023/02/25 03:47:00;;;;;;;7.47;6.73;;;4.00;99.90;;;4.57;100.00;96832.69;5190651;28;20191;-80
2023/02/25 03:49:41;;;;;;;7.97;6.47;;;3.90;99.90;;;4.57;100.00;96830.16;5196596;28;20198;-79
2023/02/25 03:52:20;;;;;;;7.40;6.33;;;3.90;99.90;;;4.54;100.00;96830.84;5188015;28;20230;-79
2023/02/25 03:54:56;;;;;;;8.43;6.40;;;3.90;99.90;;;4.56;100.00;96833.50;5185944;28;20230;-79
2023/02/25 03:57:37;;;;;;;7.63;6.43;;;3.90;99.90;;;4.53;100.00;96828.25;5181181;28;20658;-80
2023/02/25 04:00:17;;;;;;;7.70;6.10;;;3.90;99.90;;;4.50;100.00;96824.72;5188705;28;20563;-79
2023/02/25 04:02:51;;;;;;;8.03;6.23;;;3.90;99.90;;;4.45;100.00;96847.97;5185943;28;20201;-80
2023/02/25 04:05:26;;;;;;;8.43;5.80;;;3.90;99.90;;;4.37;100.00;96842.41;5180235;28;20312;-80
2023/02/25 04:08:00;;;;;;;7.07;6.03;;;3.80;99.90;;;4.31;100.00;96846.22;5179840;28;21001;-80
2023/02/25 04:10:34;;;;;;;8.33;6.03;;;3.70;99.90;;;4.24;100.00;96850.03;5187476;28;20201;-80
2023/02/25 04:13:07;;;;;;;10.77;6.33;;;3.70;99.90;;;4.19;100.00;96864.00;5186652;28;20212;-79
2023/02/25 04:15:41;;;;;;;7.47;5.90;;;3.60;99.90;;;4.13;100.00;96866.16;5186611;28;20305;-79
2023/02/25 04:18:14;;;;;;;6.50;5.27;;;3.60;99.90;;;4.12;100.00;96860.22;5189148;28;20469;-80
2023/02/25 04:20:47;;;;;;;6.37;5.77;;;3.60;99.90;;;4.13;100.00;96866.16;5182525;28;20198;-81
2023/02/25 04:23:22;;;;;;;7.70;5.70;;;3.60;99.90;;;4.19;100.00;96851.38;5184320;28;20198;-78
2023/02/25 04:25:55;;;;;;;8.30;5.97;;;3.60;99.90;;;4.27;100.00;96850.22;5177954;28;20204;-80
2023/02/25 04:28:28;;;;;;;7.40;6.10;;;3.70;99.90;;;4.31;100.00;96844.56;5180376;28;20209;-79
2023/02/25 04:31:01;;;;;;;6.13;5.27;;;3.70;99.90;;;4.35;100.00;96844.00;5176988;28;20316;-80
2023/02/25 04:33:35;;;;;;;7.80;5.87;;;3.70;99.90;;;4.48;100.00;96851.56;5179221;28;20226;-80
2023/02/25 04:36:27;;;;;;;6.47;5.70;;;3.80;99.90;;;4.35;100.00;96849.06;5185153;28;20215;-79
2023/02/25 04:39:05;;;;;;;9.47;6.17;;;3.80;99.90;;;4.35;100.00;96855.75;5185898;28;20202;-80
2023/02/25 04:41:38;;;;;;;8.80;5.77;;;3.70;99.90;;;4.34;100.00;96856.53;5190008;28;20322;-80
2023/02/25 04:44:11;;;;;;;6.13;5.53;;;3.70;99.90;;;4.34;100.00;96857.41;5189073;28;20222;-79
2023/02/25 04:46:44;;;;;;;6.93;5.40;;;3.80;99.90;;;4.38;100.00;96863.53;5184029;28;20241;-80
2023/02/25 04:49:20;;;;;;;9.43;5.70;;;3.80;99.90;;;4.37;100.00;96862.66;5179946;28;20202;-79
2023/02/25 04:51:53;;;;;;;6.63;5.93;;;3.80;99.90;;;4.39;100.00;96861.13;5176417;28;20702;-79
2023/02/25 04:54:28;;;;;;;7.03;5.77;;;3.80;99.90;;;4.39;100.00;96868.69;5182975;28;20221;-79
2023/02/25 04:57:01;;;;;;;6.13;5.60;;;3.80;99.90;;;4.37;100.00;96867.72;5188518;28;20219;-80
2023/02/25 04:59:34;;;;;;;7.83;6.60;;;3.80;99.90;;;4.38;100.00;96863.53;5192802;28;20578;-80
2023/02/25 05:02:07;;;;;;;8.83;6.37;;;3.80;99.90;;;4.36;100.00;96860.91;5186067;28;20217;-79
2023/02/25 05:04:41;;;;;;;10.53;6.73;;;3.70;99.90;;;4.35;100.00;96860.81;5186551;28;20221;-80
2023/02/25 05:07:14;;;;;;;9.80;6.40;;;3.70;99.90;;;4.29;100.00;96869.78;5184169;28;20213;-79
2023/02/25 05:09:49;;;;;;;11.70;7.13;;;3.70;99.90;;;4.29;100.00;96871.41;5179909;28;20582;-79
2023/02/25 05:12:22;;;;;;;7.73;6.47;;;3.70;99.90;;;4.30;100.00;96875.69;5182693;28;20225;-79
2023/02/25 05:14:55;;;;;;;8.93;6.67;;;3.70;99.90;;;4.32;100.00;96874.16;5191561;28;20220;-78
2023/02/25 05:17:28;;;;;;;11.10;7.03;;;3.70;99.90;;;4.34;100.00;96876.78;5188662;28;20281;-79
2023/02/25 05:20:01;;;;;;;7.73;6.37;;;3.70;99.90;;;4.34;100.00;96871.72;5188796;28;20222;-79
2023/02/25 05:22:35;;;;;;;7.97;6.60;;;3.70;99.90;;;4.32;100.00;96875.78;5177876;28;20666;-79
2023/02/25 05:25:11;;;;;;;9.17;6.37;;;3.70;99.90;;;4.30;100.00;96868.13;5187373;28;20230;-79
2023/02/25 05:27:44;;;;;;;6.50;5.73;;;3.70;99.90;;;4.33;100.00;96869.97;5185257;28;20221;-80
2023/02/25 05:30:18;;;;;;;10.83;6.43;;;3.70;99.90;;;4.32;100.00;96874.16;5186725;28;20201;-80
2023/02/25 05:32:51;;;;;;;7.03;5.83;;;3.60;99.90;;;4.31;100.00;96872.38;5182609;28;20226;-80
2023/02/25 05:35:24;;;;;;;7.60;5.73;;;3.60;99.90;;;4.27;100.00;96871.31;5181939;28;20690;-80
2023/02/25 05:37:58;;;;;;;9.63;6.03;;;3.70;99.90;;;4.25;100.00;96865.28;5183441;28;20209;-79
2023/02/25 05:40:32;;;;;;;8.53;5.73;;;3.60;99.90;;;4.29;100.00;96859.66;5189225;28;20325;-80
2023/02/25 05:43:08;;;;;;;8.97;5.80;;;3.60;99.90;;;4.23;100.00;96865.94;5185391;28;20202;-79
2023/02/25 05:45:41;;;;;;;7.33;5.57;;;3.60;99.90;;;4.27;100.00;96875.50;5178017;28;20852;-78
2023/02/25 05:48:14;;;;;;;7.37;5.23;;;3.60;99.90;;;4.22;100.00;96879.38;5179626;28;20297;-79
2023/02/25 05:50:49;;;;;;;7.67;4.60;;;3.50;99.90;;;4.17;100.00;96888.31;5187859;28;20282;-80
2023/02/25 05:53:22;;;;;;;5.97;4.57;;;3.50;99.90;;;4.16;100.00;96891.63;5180712;28;20319;-79
2023/02/25 05:55:56;;;;;;;6.37;4.10;;;3.50;99.90;;;4.13;100.00;96891.44;5191820;28;20199;-80
2023/02/25 05:58:29;;;;;;;4.83;4.40;;;3.50;99.90;;;4.13;100.00;96896.50;5183287;28;20201;-79
2023/02/25 06:01:10;;;;;;;5.17;4.53;;;3.50;99.90;;;4.09;100.00;96904.63;5180994;28;20206;-79
2023/02/25 06:03:45;;;;;;;4.60;4.00;;;3.40;99.90;;;4.10;100.00;96898.81;5183206;28;20308;-79
2023/02/25 06:06:21;;;;;;;7.60;4.10;;;3.50;99.90;;;4.12;100.00;96900.69;5187598;28;20202;-78
2023/02/25 06:08:55;;;;;;;5.53;4.63;;;3.50;99.90;;;4.02;100.00;96901.69;5183858;28;20212;-80
2023/02/25 06:11:30;;;;;;;5.90;4.10;;;3.40;99.90;;;4.03;100.00;96900.94;5186759;28;20880;-79
2023/02/25 06:14:03;;;;;;;5.43;3.90;;;3.50;99.90;;;4.12;100.00;96899.78;5185392;28;20255;-80
2023/02/25 06:16:39;;;;;;;6.07;4.43;;;3.50;99.90;;;4.14;100.00;96904.16;5185097;28;20209;-80
2023/02/25 06:19:12;;;;;;;3.87;3.37;;;3.50;99.90;;;4.17;100.00;96906.00;5185255;28;20971;-80
2023/02/25 06:21:45;;;;;;;6.97;3.97;;;3.50;99.90;;;4.11;100.00;96905.63;5192425;28;20202;-79
2023/02/25 06:24:18;;;;;;;4.17;3.77;;;3.50;99.90;;;4.13;100.00;96902.41;5185720;28;20599;-78
2023/02/25 06:26:53;;;;;;;7.43;4.10;;;3.50;99.90;;;4.18;100.00;96903.59;5178097;28;20213;-80
2023/02/25 06:29:26;;;;;;;6.57;3.87;;;3.50;99.90;;;4.17;100.00;96908.53;5185500;28;20209;-79
2023/02/25 06:32:00;;;;;;;4.53;3.43;;;3.50;99.90;;;4.18;100.00;96915.38;5190652;28;20232;-80
2023/02/25 06:34:33;;;;;;;5.73;3.87;;;3.50;99.90;;;4.18;100.00;96920.44;5192749;28;20236;-80
2023/02/25 06:37:07;;;;;;;8.00;3.80;;;3.50;99.90;;;4.18;100.00;96925.50;5187386;28;20213;-79
2023/02/25 06:39:41;;;;;;;4.63;4.20;;;3.50;99.90;;;4.16;100.00;96927.03;5181409;28;20201;-79
2023/02/25 06:42:16;;;;;;;5.67;4.10;;;3.50;99.90;;;4.21;100.00;96931.63;5185008;28;20206;-80
2023/02/25 06:44:50;;;;;;;7.57;3.83;;;3.50;99.90;;;4.22;100.00;96923.25;5179427;28;20302;-79
2023/02/25 06:47:23;;;;;;;4.93;3.80;;;3.60;99.90;;;4.20;100.00;96923.91;5191649;28;20215;-78
2023/02/25 06:49:56;;;;;;;5.53;4.10;;;3.50;99.90;;;4.24;100.00;96918.31;5190743;28;20210;-80
2023/02/25 06:52:31;;;;;;;6.27;4.13;;;3.50;99.90;;;4.31;100.00;96917.91;5185798;28;20225;-79
2023/02/25 06:55:06;;;;;;;5.53;3.70;;;3.60;99.90;;;4.36;100.00;96916.56;5184779;28;20226;-80
2023/02/25 06:57:41;;;;;;;7.67;4.27;;;3.60;99.90;;;4.32;100.00;96918.78;5187389;28;20233;-80
2023/02/25 07:00:15;;;;;;;8.30;4.10;;;3.60;99.90;;;4.42;100.00;96922.03;5186401;28;20206;-79
2023/02/25 07:02:48;;;;;;;3.70;3.33;;;3.60;99.90;;;4.41;99.52;96925.34;5183929;28;20201;-79
2023/02/25 07:05:21;;;;;;;6.63;3.80;;;3.70;99.90;;;4.34;99.00;96927.34;5186590;28;20564;-79
2023/02/25 07:07:54;;;;;;;4.13;3.57;;;3.70;99.90;;;4.35;100.00;96924.03;5192064;28;20205;-80
2023/02/25 07:10:27;;;;;;;5.53;3.37;;;3.70;99.90;;;4.35;100.00;96924.94;5188101;28;20616;-80
2023/02/25 07:13:02;;;;;;;5.13;3.40;;;3.70;99.90;;;4.31;99.27;96928.03;5184296;28;20262;-80
2023/02/25 07:15:36;;;;;;;4.90;3.90;;;3.60;99.90;;;4.39;100.00;96933.59;5186295;28;20313;-80
2023/02/25 07:18:09;;;;;;;3.57;3.33;;;3.70;99.90;;;4.43;100.00;96930.47;5192988;28;20202;-81
2023/02/25 07:20:42;;;;;;;5.73;3.60;;;3.70;99.90;;;4.47;100.00;96930.78;5188764;28;20203;-79
2023/02/25 07:23:15;;;;;;;4.03;3.57;;;3.80;99.90;;;4.42;99.04;96933.81;5188403;28;20207;-81
2023/02/25 07:25:49;;;;;;;4.03;3.63;;;3.70;99.90;;;4.45;99.45;96942.47;5188434;28;20203;-80
2023/02/25 07:28:23;;;;;;;6.30;3.20;;;3.70;99.90;;;4.48;99.79;96952.78;5186327;28;20213;-79
2023/02/25 07:30:56;;;;;;;4.73;3.20;;;3.80;99.90;;;4.53;99.39;96950.56;5187142;28;20202;-79
2023/02/25 07:33:30;;;;;;;5.63;3.73;;;3.80;99.90;;;4.58;99.58;96951.75;5188154;28;20230;-80
2023/02/25 07:36:04;;;;;;;4.60;3.83;;;3.80;99.90;;;4.66;96.20;96931.97;5186100;28;20671;-80
2023/02/25 07:38:37;;;;;;;5.20;3.67;;;3.80;99.90;;;4.77;90.02;96936.06;5182049;28;20203;-80
2023/02/25 07:41:14;;;;;;;4.27;3.60;;;4.00;99.90;;;4.72;89.51;96945.00;5188699;28;20583;-79
2023/02/25 07:43:48;;;;;;;4.87;3.63;;;3.90;99.90;;;4.72;90.65;96945.91;5191017;28;20301;-79
2023/02/25 07:46:22;;;;;;;4.73;3.57;;;3.90;99.90;;;4.89;87.40;96935.97;5191456;28;20336;-79
2023/02/25 07:48:55;;;;;;;5.00;3.67;;;4.00;99.90;;;4.82;89.44;96931.31;5188575;28;20202;-80
2023/02/25 07:51:28;;;;;;;6.80;3.50;;;4.00;99.90;;;4.79;90.83;96932.00;5182311;28;20199;-79
2023/02/25 07:54:01;;;;;;;5.30;3.60;;;4.00;99.90;;;4.89;90.25;96933.44;5185609;28;20273;-79
2023/02/25 07:56:34;;;;;;;6.50;3.67;;;4.10;99.90;;;4.87;90.89;96930.81;5190666;28;20205;-79
2023/02/25 07:59:10;;;;;;;4.87;3.60;;;4.10;99.90;;;5.05;91.49;96927.69;5188656;28;20663;-80
2023/02/25 08:01:43;;;;;;;5.53;4.27;;;4.30;99.90;;;5.30;91.36;96920.00;5184833;28;20202;-79
2023/02/25 08:04:16;;;;;;;5.80;3.77;;;4.50;99.90;;;5.60;88.98;96928.56;5186614;28;20214;-79
2023/02/25 08:06:50;;;;;;;5.43;3.40;;;4.90;99.90;;;5.95;86.26;96919.69;5179656;28;20285;-79
2023/02/25 08:09:23;;;;;;;6.57;3.70;;;5.10;99.90;;;6.34;84.64;96925.38;5189775;28;20203;-80
2023/02/25 08:11:56;;;;;;;5.20;3.50;;;5.40;99.90;;;6.58;82.27;96915.75;5183336;28;20206;-79
2023/02/25 08:14:31;;;;;;;5.03;3.47;;;5.70;99.90;;;6.69;80.65;96914.69;5184658;28;20690;-79
2023/02/25 08:17:04;;;;;;;4.57;3.20;;;5.80;99.90;;;6.86;79.59;96911.44;5185733;28;20202;-79
2023/02/25 08:19:37;;;;;;;7.23;3.60;;;6.00;99.90;;;6.93;78.33;96900.84;5184142;28;20594;-79
2023/02/25 08:22:10;;;;;;;3.97;2.97;;;6.00;99.90;;;6.93;76.43;96908.44;5186524;28;20198;-79
2023/02/25 08:24:43;;;;;;;11.10;3.07;;;6.10;99.90;;;6.89;72.99;96913.25;5188186;28;21284;-78
2023/02/25 08:27:16;;;;;;;5.43;2.97;;;6.00;99.90;;;6.76;75.25;96925.28;5179433;28;20217;-80
2023/02/25 08:29:51;;;;;;;4.20;2.93;;;6.00;99.90;;;6.49;76.71;96927.13;5180619;28;20655;-80
2023/02/25 08:32:26;;;;;;;6.20;3.03;;;5.70;99.90;;;6.48;77.14;96937.19;5190009;28;20280;-81
2023/02/25 08:34:59;;;;;;;4.70;3.40;;;5.70;99.90;;;6.29;76.89;96943.72;5182648;28;20234;-80
2023/02/25 08:37:33;;;;;;;5.70;3.30;;;5.50;99.90;;;6.34;77.17;96945.69;5188181;28;20210;-80
2023/02/25 08:40:09;;;;;;;4.03;3.27;;;5.50;99.90;;;6.59;74.29;96937.81;5188757;28;20297;-80
2023/02/25 08:42:42;;;;;;;7.37;4.47;;;5.60;99.90;;;6.55;75.21;96931.66;5187230;28;20258;-80
2023/02/25 08:45:17;;;;;;;5.30;3.03;;;5.60;99.90;;;6.68;71.77;96931.59;5181402;28;20249;-80
2023/02/25 08:47:50;;;;;;;4.80;3.20;;;5.80;99.90;;;6.60;74.18;96937.03;5185533;28;20618;-79
2023/02/25 08:50:23;;;;;;;5.07;3.37;;;5.70;99.90;;;6.71;72.49;96938.50;5187076;28;20194;-81
2023/02/25 08:52:57;;;;;;;4.97;3.50;;;5.70;99.90;;;6.65;73.34;96939.03;5190127;28;20209;-80
2023/02/25 08:55:34;;;;;;;3.30;3.00;;;5.70;99.90;;;6.89;72.61;96943.75;5185767;28;20301;-81
2023/02/25 08:58:07;;;;;;;5.17;3.60;;;5.90;99.90;;;6.84;71.00;96935.88;5185359;28;20206;-81
2023/02/25 09:00:42;;;;;;;6.33;3.53;;;6.00;99.90;;;7.05;70.65;96932.78;5189367;28;20197;-81
2023/02/25 09:03:15;;;;;;;6.30;3.90;;;6.20;99.90;;;7.19;70.72;96935.28;5188764;28;20205;-80
2023/02/25 09:05:52;;;;;;;7.40;3.57;;;6.40;99.90;;;7.26;70.98;96928.00;5185235;28;20203;-81
2023/02/25 09:08:26;;;;;;;5.47;3.50;;;6.40;99.90;;;7.32;71.28;96931.75;5185230;28;20210;-80
2023/02/25 09:10:59;;;;;;;6.57;3.40;;;6.60;99.90;;;7.72;68.30;96925.38;5182858;28;20807;-79
2023/02/25 09:13:32;;;;;;;5.67;3.53;;;6.90;99.90;;;7.94;67.64;96920.63;5183652;28;20256;-80
2023/02/25 09:16:08;;;;;;;4.33;3.00;;;7.30;99.90;;;7.98;66.46;96922.50;5183379;28;20205;-81
2023/02/25 09:18:41;;;;;;;3.73;3.13;;;7.30;99.90;;;8.00;65.90;96931.09;5184351;28;20202;-80
2023/02/25 09:21:15;;;;;;;3.77;3.00;;;7.20;99.90;;;7.90;68.46;96928.91;5174558;28;20287;-82
2023/02/25 09:23:50;;;;;;;6.03;3.00;;;7.20;99.90;;;7.61;67.96;96930.78;5177303;28;20241;-81
2023/02/25 09:26:23;;;;;;;4.10;3.00;;;6.80;99.90;;;7.46;65.42;96929.94;5184551;28;20206;-80
2023/02/25 09:28:56;;;;;;;5.30;3.17;;;6.60;99.90;;;7.25;66.75;96928.81;5184210;28;20206;-80
2023/02/25 09:31:32;;;;;;;4.73;3.37;;;6.40;99.90;;;7.29;63.91;96928.16;5182977;28;20205;-80
2023/02/25 09:34:12;;;;;;;3.10;2.70;;;6.30;99.90;;;6.96;65.18;96931.47;5190782;28;20225;-80
2023/02/25 09:36:46;;;;;;;4.23;3.00;;;6.10;99.90;;;6.95;65.90;96923.75;5180184;28;20233;-80
2023/02/25 09:39:19;;;;;;;4.77;3.03;;;6.10;99.90;;;7.21;65.20;96927.72;5179962;28;20202;-81
2023/02/25 09:41:56;;;;;;;4.67;2.93;;;6.20;99.90;;;7.20;64.75;96926.00;5188007;28;21936;-79
2023/02/25 09:44:32;;;;;;;3.50;2.53;;;6.20;99.90;;;7.34;64.56;96930.16;5180070;28;20225;-79
2023/02/25 09:47:18;;;;;;;3.63;2.50;;;6.40;99.90;;;7.47;61.53;96929.19;5178789;28;20198;-80
2023/02/25 09:49:56;;;;;;;3.37;2.70;;;6.50;99.90;;;7.35;62.91;96931.03;5186360;28;20261;-79
2023/02/25 09:52:33;;;;;;;2.83;2.63;;;6.50;99.90;;;7.16;64.43;96922.41;5183417;28;20194;-81
2023/02/25 09:55:16;;;;;;;3.67;2.90;;;6.30;99.90;;;7.32;62.95;96923.25;5173957;28;20227;-80
2023/02/25 09:58:02;;;;;;;4.73;2.50;;;6.40;99.90;;;7.41;60.92;96928.81;5181767;28;20195;-80
2023/02/25 10:00:43;;;;;;;3.03;2.80;;;6.50;99.90;;;7.54;61.85;96927.81;5184908;28;20214;-80
2023/02/25 10:03:25;;;;;;;4.97;2.60;;;6.50;99.90;;;7.54;60.32;96928.69;5178973;28;20218;-80
2023/02/25 10:06:04;;;;;;;4.03;2.43;;;6.60;99.90;;;7.73;59.13;96932.22;5182201;28;20198;-80
2023/02/25 10:08:44;;;;;;;4.87;2.87;;;6.70;99.90;;;7.93;59.43;96934.16;5189116;28;20194;-80
2023/02/25 10:11:29;;;;;;;3.87;2.83;;;6.80;99.90;;;7.83;59.23;96926.81;5184092;28;20199;-80
2023/02/25 10:14:15;;;;;;;4.13;2.60;;;6.90;99.90;;;7.60;60.08;96928.16;5176886;28;20230;-79
2023/02/25 10:17:02;;;;;;;3.27;2.50;;;6.80;99.90;;;7.33;58.45;96927.56;5180757;28;20217;-80
2023/02/25 10:19:54;;;;;;;5.00;2.77;;;6.50;99.90;;;7.53;58.83;96928.63;5196134;28;20689;-80
2023/02/25 10:22:41;;;;;;;3.97;2.97;;;6.50;99.90;;;7.65;58.34;96930.16;5190857;28;20203;-80
2023/02/25 10:25:18;;;;;;;2.93;2.50;;;6.70;99.90;;;7.49;60.45;96937.72;5192610;28;20229;-79
2023/02/25 10:27:57;;;;;;;3.27;2.87;;;6.60;99.90;;;7.65;57.53;96926.72;5196249;28;20212;-78
2023/02/25 10:30:36;;;;;;;3.20;2.30;;;6.50;99.90;;;7.25;56.47;96919.50;5185462;28;20591;-80
2023/02/25 10:33:20;;;;;;;2.90;2.60;;;6.40;99.90;;;7.26;59.14;96922.91;5183556;28;20205;-80
2023/02/25 10:36:01;;;;;;;2.73;2.17;;;6.20;99.90;;;7.24;57.51;96927.94;5191577;28;20232;-80
2023/02/25 10:38:35;;;;;;;3.37;2.80;;;6.20;99.90;;;7.10;56.87;96919.56;5197255;28;20215;-79
2023/02/25 10:41:08;;;;;;;2.60;2.40;;;6.10;99.90;;;6.83;57.29;96918.88;5184239;28;20207;-79
2023/02/25 10:43:42;;;;;;;3.70;2.57;;;6.00;99.90;;;6.82;58.91;96912.06;5185970;28;20226;-80
2023/02/25 10:46:22;;;;;;;2.50;2.17;;;6.00;99.90;;;6.84;58.82;96919.75;5184882;28;20198;-81
2023/02/25 10:48:58;;;;;;;2.97;2.30;;;6.00;99.90;;;6.89;59.50;96918.34;5181546;28;20289;-81
2023/02/25 10:51:33;;;;;;;3.17;2.67;;;6.00;99.90;;;6.99;60.35;96906.25;5186947;28;20198;-80
2023/02/25 10:54:13;;;;;;;5.47;2.60;;;6.10;99.90;;;7.37;57.02;96909.13;5188940;28;20230;-79
2023/02/25 10:56:48;;;;;;;3.03;2.20;;;6.30;99.90;;;7.41;57.83;96905.94;5182044;28;20209;-80
2023/02/25 10:59:30;;;;;;;2.50;2.27;;;6.40;99.90;;;7.49;58.35;96906.34;5182094;28;20285;-79
2023/02/25 11:02:22;;;;;;;3.73;2.37;;;6.50;99.90;;;7.55;57.52;96910.09;5190595;28;20298;-80